createdAt,value
2018-07-15T00:04:56.186Z,80.40
2018-07-15T00:26:54.954Z,82.30
2018-07-15T00:48:53.391Z,83.10
2018-07-15T01:10:51.806Z,84.00
2018-07-15T01:32:50.399Z,84.30
2018-07-15T01:54:48.933Z,83.80
2018-07-15T02:20:02.521Z,84.60
2018-07-15T02:55:00.965Z,84.30
2018-07-15T03:16:59.419Z,85.40
2018-07-15T03:38:57.845Z,85.10
2018-07-15T04:00:56.300Z,86.20
2018-07-15T04:26:09.804Z,85.30
2018-07-15T04:48:13.276Z,85.40
2018-07-15T05:10:11.748Z,86.20
2018-07-15T05:22:39.534Z,82.50
2018-07-15T05:44:37.978Z,82.90
2018-07-15T06:06:36.452Z,81.40
2018-07-15T06:28:36.193Z,81.00
2018-07-15T06:50:34.624Z,80.50
2018-07-15T07:12:33.029Z,77.80
2018-07-15T07:37:51.624Z,73.60
2018-07-15T08:00:04.281Z,71.60
2018-07-15T08:22:12.882Z,65.80
2018-07-15T08:44:21.760Z,59.30
2018-07-15T09:06:25.160Z,56.70
2018-07-15T09:28:33.614Z,50.90
2018-07-15T09:50:42.384Z,48.90
2018-07-15T10:03:01.984Z,46.80
2018-07-15T10:28:17.868Z,48.70
2018-07-15T10:50:27.572Z,45.90
2018-07-15T11:03:08.906Z,44.20
2018-07-15T11:25:18.504Z,45.90
2018-07-15T11:59:42.187Z,44.60
2018-07-15T12:25:02.769Z,42.80
2018-07-15T12:47:12.936Z,42.20
2018-07-15T13:09:13.112Z,40.90
2018-07-15T13:31:14.590Z,36.40
2018-07-15T13:53:21.811Z,33.90
2018-07-15T14:21:53.677Z,36.80
2018-07-15T14:34:07.989Z,38.10
2018-07-15T14:56:07.564Z,50.10
2018-07-15T15:18:06.310Z,53.50
2018-07-15T15:43:30.166Z,54.60
2018-07-15T16:08:44.834Z,54.30
2018-07-15T16:33:59.387Z,59.20
2018-07-15T16:59:20.817Z,58.40
2018-07-15T17:27:56.432Z,57.70
2018-07-15T17:53:22.333Z,55.90
2018-07-15T18:05:36.486Z,58.80
2018-07-15T18:43:04.009Z,58.50
2018-07-15T18:55:35.196Z,58.70
2018-07-15T19:17:39.791Z,61.00
2018-07-15T19:42:57.793Z,61.50
2018-07-15T20:11:37.471Z,61.90
2018-07-15T20:45:55.248Z,63.50
2018-07-15T21:07:58.884Z,65.50
2018-07-15T21:30:07.422Z,67.60
2018-07-15T21:52:10.980Z,68.60
2018-07-15T22:07:49.886Z,69.20
2018-07-15T22:20:21.345Z,70.30
2018-07-15T22:42:19.720Z,71.50
2018-07-15T23:04:18.117Z,72.50
2018-07-15T23:26:16.499Z,73.70
2018-07-15T23:48:14.996Z,74.60
